createdAt,value
2022-12-01T00:00:12.756Z,5.91
2022-12-01T00:01:15.704Z,5.90
2022-12-01T00:02:17.557Z,5.89
2022-12-01T00:03:20.516Z,5.89
2022-12-01T00:04:22.280Z,5.88
2022-12-01T00:05:24.956Z,5.91
2022-12-01T00:06:27.975Z,5.90
2022-12-01T00:07:30.740Z,5.89
2022-12-01T00:08:33.032Z,5.89
2022-12-01T00:09:53.192Z,5.87
2022-12-01T00:10:55.906Z,5.84
2022-12-01T00:11:57.623Z,5.84
2022-12-01T00:13:03.292Z,5.82
2022-12-01T00:14:05.863Z,5.80
2022-12-01T00:15:08.784Z,5.79
2022-12-01T00:16:11.353Z,5.78
2022-12-01T00:17:14.016Z,5.78
2022-12-01T00:18:15.802Z,5.78
2022-12-01T00:19:18.834Z,5.75
2022-12-01T00:20:20.596Z,5.74
2022-12-01T00:21:25.039Z,5.72
2022-12-01T00:22:28.124Z,5.72
2022-12-01T00:23:30.783Z,5.69
2022-12-01T00:24:32.594Z,5.66
2022-12-01T00:25:35.240Z,5.65
2022-12-01T00:26:37.572Z,5.66
2022-12-01T00:27:40.238Z,5.68
2022-12-01T00:28:42.074Z,5.68
2022-12-01T00:29:44.703Z,5.70
2022-12-01T00:30:46.370Z,5.70
2022-12-01T00:31:49.083Z,5.69
2022-12-01T00:32:50.766Z,5.70
2022-12-01T00:33:53.536Z,5.72
2022-12-01T00:34:55.231Z,5.73
2022-12-01T00:36:00.686Z,5.73
2022-12-01T00:37:02.381Z,5.72
2022-12-01T00:38:06.423Z,5.73
2022-12-01T00:39:08.553Z,5.73
2022-12-01T00:40:12.259Z,5.72
2022-12-01T00:41:14.211Z,5.71
2022-12-01T00:42:17.023Z,5.71
2022-12-01T00:43:18.673Z,5.68
2022-12-01T00:44:21.373Z,5.67
2022-12-01T00:45:23.153Z,5.65
2022-12-01T00:46:26.004Z,5.65
2022-12-01T00:47:27.714Z,5.65
2022-12-01T00:48:30.354Z,5.65
2022-12-01T00:49:32.042Z,5.64
2022-12-01T00:50:34.709Z,5.63
2022-12-01T00:51:36.364Z,5.63
2022-12-01T00:52:39.044Z,5.61
2022-12-01T00:53:42.081Z,5.61
2022-12-01T00:54:44.839Z,5.60
2022-12-01T00:55:46.632Z,5.57
2022-12-01T00:56:49.350Z,5.56
2022-12-01T00:57:53.402Z,5.53
2022-12-01T00:58:56.118Z,5.49
2022-12-01T00:59:57.867Z,5.50
2022-12-01T01:01:01.544Z,5.52
2022-12-01T01:02:03.811Z,5.53
2022-12-01T01:03:07.366Z,5.54
2022-12-01T01:04:09.180Z,5.54
2022-12-01T01:05:11.883Z,5.55
2022-12-01T01:06:13.791Z,5.55
2022-12-01T01:07:16.443Z,5.57
2022-12-01T01:08:18.081Z,5.57
2022-12-01T01:09:22.185Z,5.57
2022-12-01T01:10:23.920Z,5.57
2022-12-01T01:11:26.636Z,5.58
2022-12-01T01:12:28.362Z,5.57
2022-12-01T01:13:31.082Z,5.57
2022-12-01T01:14:32.776Z,5.59
2022-12-01T01:15:35.531Z,5.62
2022-12-01T01:16:37.269Z,5.62
2022-12-01T01:17:40.069Z,5.63
2022-12-01T01:18:42.094Z,5.64
2022-12-01T01:19:44.881Z,5.64
2022-12-01T01:20:55.436Z,5.64
2022-12-01T01:21:58.114Z,5.63
2022-12-01T01:22:59.914Z,5.63
2022-12-01T01:24:02.720Z,5.63
2022-12-01T01:25:06.645Z,5.63
2022-12-01T01:26:11.655Z,5.65
2022-12-01T01:27:13.395Z,5.66
2022-12-01T01:28:16.128Z,5.68
2022-12-01T01:29:17.899Z,5.70
2022-12-01T01:30:21.185Z,5.72
2022-12-01T01:31:24.426Z,5.71
2022-12-01T01:32:27.167Z,5.72
2022-12-01T01:33:29.976Z,5.74
2022-12-01T01:34:32.901Z,5.74
2022-12-01T01:35:34.580Z,5.72
2022-12-01T01:36:37.288Z,5.70
2022-12-01T01:37:39.095Z,5.70
2022-12-01T01:38:41.041Z,5.70
2022-12-01T01:39:43.727Z,5.69
2022-12-01T01:40:47.140Z,5.69
2022-12-01T01:41:49.853Z,5.69
2022-12-01T01:42:51.553Z,5.70
2022-12-01T01:43:56.143Z,5.70
2022-12-01T01:44:58.742Z,5.70
2022-12-01T01:46:01.521Z,5.69
2022-12-01T01:47:03.581Z,5.69
2022-12-01T01:48:06.482Z,5.67
2022-12-01T01:49:10.241Z,5.66
2022-12-01T01:50:14.810Z,5.67
2022-12-01T01:51:17.933Z,5.68
2022-12-01T01:52:20.940Z,5.65
2022-12-01T01:53:23.584Z,5.64
2022-12-01T01:54:28.105Z,5.62
2022-12-01T01:55:30.702Z,5.60
2022-12-01T01:56:36.195Z,5.58
2022-12-01T01:57:39.227Z,5.57
2022-12-01T01:58:42.396Z,5.56
2022-12-01T01:59:48.333Z,5.58
2022-12-01T02:00:51.505Z,5.57
2022-12-01T02:02:01.442Z,5.56
2022-12-01T02:03:05.133Z,5.56
2022-12-01T02:04:07.632Z,5.57
2022-12-01T02:05:13.644Z,5.58
2022-12-01T02:06:15.467Z,5.58
2022-12-01T02:07:20.590Z,5.60
2022-12-01T02:08:22.500Z,5.60
2022-12-01T02:09:25.486Z,5.61
2022-12-01T02:10:34.161Z,5.61
2022-12-01T02:11:56.033Z,5.60
2022-12-01T02:13:06.498Z,5.57
2022-12-01T02:14:14.061Z,5.56
2022-12-01T02:15:23.492Z,5.56
2022-12-01T02:16:32.016Z,5.54
2022-12-01T02:17:41.836Z,5.53
2022-12-01T02:19:02.764Z,5.52
2022-12-01T02:20:27.142Z,5.52
2022-12-01T02:21:37.394Z,5.51
2022-12-01T02:22:53.505Z,5.51
2022-12-01T02:24:29.825Z,5.52
2022-12-01T02:25:41.726Z,5.52
2022-12-01T02:26:48.396Z,5.50
2022-12-01T02:28:41.400Z,5.51
2022-12-01T02:30:06.224Z,5.48
2022-12-01T02:31:15.249Z,5.44
2022-12-01T02:32:24.639Z,5.42
2022-12-01T02:33:30.194Z,5.41
2022-12-01T02:34:40.056Z,5.42
2022-12-01T02:35:48.961Z,5.40
2022-12-01T02:36:54.238Z,5.41
2022-12-01T02:38:04.472Z,5.42
2022-12-01T02:39:08.047Z,5.41
2022-12-01T02:40:15.279Z,5.41
2022-12-01T02:41:20.467Z,5.42
2022-12-01T02:42:42.214Z,5.43
2022-12-01T02:43:49.026Z,5.40
2022-12-01T02:44:51.070Z,5.39
2022-12-01T02:45:57.299Z,5.37
2022-12-01T02:47:02.921Z,5.39
2022-12-01T02:48:07.803Z,5.39
2022-12-01T02:49:13.637Z,5.40
2022-12-01T02:50:16.606Z,5.40
2022-12-01T02:51:21.140Z,5.40
2022-12-01T02:52:24.962Z,5.41
2022-12-01T02:53:26.729Z,5.41
2022-12-01T02:54:31.300Z,5.40
2022-12-01T02:55:33.139Z,5.40
2022-12-01T02:56:35.811Z,5.42
2022-12-01T02:57:37.495Z,5.42
2022-12-01T02:58:40.211Z,5.44
2022-12-01T02:59:43.544Z,5.44
2022-12-01T03:01:06.441Z,5.47
2022-12-01T03:02:14.728Z,5.48
2022-12-01T03:03:33.576Z,5.50
2022-12-01T03:04:43.855Z,5.50
2022-12-01T03:05:49.870Z,5.47
2022-12-01T03:06:56.977Z,5.48
2022-12-01T03:08:03.265Z,5.45
2022-12-01T03:09:10.684Z,5.46
2022-12-01T03:10:19.495Z,5.46
2022-12-01T03:11:31.912Z,5.47
2022-12-01T03:12:37.898Z,5.46
2022-12-01T03:13:43.332Z,5.46
2022-12-01T03:14:50.343Z,5.46
2022-12-01T03:15:57.156Z,5.48
2022-12-01T03:17:04.714Z,5.48
2022-12-01T03:18:18.128Z,5.49
2022-12-01T03:19:28.556Z,5.50
2022-12-01T03:20:35.499Z,5.50
2022-12-01T03:21:41.479Z,5.51
2022-12-01T03:22:46.920Z,5.50
2022-12-01T03:23:53.064Z,5.49
2022-12-01T03:24:55.992Z,5.46
2022-12-01T03:26:00.392Z,5.46
2022-12-01T03:27:03.650Z,5.43
2022-12-01T03:28:21.241Z,5.42
2022-12-01T03:29:27.562Z,5.41
2022-12-01T03:30:31.579Z,5.39
2022-12-01T03:31:37.775Z,5.39
2022-12-01T03:32:47.401Z,5.39
2022-12-01T03:33:53.246Z,5.38
2022-12-01T03:34:59.102Z,5.37
2022-12-01T03:36:04.134Z,5.36
2022-12-01T03:37:10.193Z,5.36
2022-12-01T03:38:16.394Z,5.37
2022-12-01T03:39:22.160Z,5.36
2022-12-01T03:40:27.215Z,5.36
2022-12-01T03:41:35.336Z,5.34
2022-12-01T03:42:39.589Z,5.32
2022-12-01T03:43:43.701Z,5.31
2022-12-01T03:44:47.795Z,5.31
2022-12-01T03:45:56.662Z,5.30
2022-12-01T03:47:01.234Z,5.31
2022-12-01T03:48:04.128Z,5.28
2022-12-01T03:49:08.852Z,5.26
2022-12-01T03:50:14.150Z,5.24
2022-12-01T03:51:19.322Z,5.23
2022-12-01T03:52:30.334Z,5.23
2022-12-01T03:53:37.488Z,5.21
2022-12-01T03:54:46.691Z,5.21
2022-12-01T03:55:55.235Z,5.21
2022-12-01T03:57:01.659Z,5.20
2022-12-01T03:58:06.543Z,5.17
2022-12-01T03:59:10.197Z,5.13
2022-12-01T04:00:14.685Z,5.11
2022-12-01T04:01:17.558Z,5.07
2022-12-01T04:02:19.406Z,5.05
2022-12-01T04:03:25.571Z,5.03
2022-12-01T04:04:28.809Z,5.01
2022-12-01T04:05:32.357Z,4.99
2022-12-01T04:06:34.361Z,4.97
2022-12-01T04:07:37.284Z,4.93
2022-12-01T04:08:39.299Z,4.93
2022-12-01T04:09:42.482Z,4.92
2022-12-01T04:10:44.167Z,4.94
2022-12-01T04:12:04.333Z,4.94
2022-12-01T04:13:12.011Z,4.97
2022-12-01T04:14:13.678Z,4.96
2022-12-01T04:15:16.699Z,4.97
2022-12-01T04:16:18.438Z,4.99
2022-12-01T04:17:21.185Z,4.99
2022-12-01T04:18:23.959Z,4.98
2022-12-01T04:19:25.738Z,4.97
2022-12-01T04:20:29.855Z,4.96
2022-12-01T04:21:31.575Z,4.95
2022-12-01T04:22:34.457Z,4.93
2022-12-01T04:23:54.812Z,4.92
2022-12-01T04:24:57.585Z,4.87
2022-12-01T04:26:00.085Z,4.86
2022-12-01T04:27:02.811Z,4.83
2022-12-01T04:28:05.918Z,4.80
2022-12-01T04:29:10.100Z,4.78
2022-12-01T04:30:13.612Z,4.77
2022-12-01T04:31:15.322Z,4.78
2022-12-01T04:32:18.150Z,4.79
2022-12-01T04:33:19.861Z,4.79
2022-12-01T04:34:22.613Z,4.79
2022-12-01T04:35:25.243Z,4.81
2022-12-01T04:36:30.549Z,4.80
2022-12-01T04:37:33.282Z,4.80
2022-12-01T04:38:37.030Z,4.79
2022-12-01T04:39:42.020Z,4.79
2022-12-01T04:40:43.836Z,4.77
2022-12-01T04:41:46.518Z,4.78
2022-12-01T04:42:48.172Z,4.77
2022-12-01T04:43:50.815Z,4.78
2022-12-01T04:44:52.483Z,4.79
2022-12-01T04:45:55.137Z,4.79
2022-12-01T04:46:57.831Z,4.80
2022-12-01T04:47:59.703Z,4.80
2022-12-01T04:49:02.407Z,4.82
2022-12-01T04:50:04.989Z,4.84
2022-12-01T04:51:09.413Z,4.84
2022-12-01T04:52:12.438Z,4.82
2022-12-01T04:53:15.200Z,4.81
2022-12-01T04:54:17.367Z,4.80
2022-12-01T04:55:20.087Z,4.81
2022-12-01T04:56:21.799Z,4.81
2022-12-01T04:57:24.492Z,4.83
2022-12-01T04:58:26.241Z,4.83
2022-12-01T04:59:29.004Z,4.83
2022-12-01T05:00:31.034Z,4.83
2022-12-01T05:01:33.795Z,4.83
2022-12-01T05:02:35.554Z,4.83
2022-12-01T05:03:38.761Z,4.83
2022-12-01T05:04:41.902Z,4.83
2022-12-01T05:05:43.579Z,4.81
2022-12-01T05:06:46.332Z,4.81
2022-12-01T05:07:49.479Z,4.80
2022-12-01T05:08:52.867Z,4.81
2022-12-01T05:09:56.074Z,4.81
2022-12-01T05:10:57.818Z,4.81
2022-12-01T05:12:00.516Z,4.81
2022-12-01T05:13:02.506Z,4.84
2022-12-01T05:14:05.187Z,4.86
2022-12-01T05:15:07.996Z,4.87
2022-12-01T05:16:13.005Z,4.89
2022-12-01T05:17:14.743Z,4.90
2022-12-01T05:18:17.452Z,4.92
2022-12-01T05:19:49.347Z,4.91
2022-12-01T05:20:59.978Z,4.93
2022-12-01T05:22:02.773Z,4.94
2022-12-01T05:23:06.536Z,4.94
2022-12-01T05:24:10.871Z,4.95
2022-12-01T05:25:12.564Z,4.96
2022-12-01T05:26:15.529Z,4.97
2022-12-01T05:27:17.302Z,4.97
2022-12-01T05:28:20.034Z,4.96
2022-12-01T05:29:21.752Z,4.99
2022-12-01T05:30:28.494Z,4.98
2022-12-01T05:31:31.097Z,4.98
2022-12-01T05:32:33.819Z,4.98
2022-12-01T05:33:35.504Z,4.99
2022-12-01T05:34:38.235Z,4.98
2022-12-01T05:35:40.040Z,4.97
2022-12-01T05:36:42.976Z,4.98
2022-12-01T05:37:44.755Z,4.98
2022-12-01T05:38:48.743Z,4.98
2022-12-01T05:39:50.700Z,4.98
2022-12-01T05:40:54.773Z,4.98
2022-12-01T05:41:56.499Z,4.99
2022-12-01T05:42:59.564Z,4.98
2022-12-01T05:44:01.222Z,4.97
2022-12-01T05:45:04.231Z,4.95
2022-12-01T05:46:06.256Z,4.96
2022-12-01T05:47:09.004Z,4.96
2022-12-01T05:48:10.683Z,4.96
2022-12-01T05:49:13.358Z,4.98
2022-12-01T05:50:15.424Z,4.99
2022-12-01T05:51:18.716Z,5.00
2022-12-01T05:52:20.399Z,4.99
2022-12-01T05:53:23.140Z,5.00
2022-12-01T05:54:26.238Z,5.01
2022-12-01T05:55:28.955Z,5.00
2022-12-01T05:56:30.757Z,5.01
2022-12-01T05:57:34.094Z,5.01
2022-12-01T05:58:35.973Z,5.00
2022-12-01T05:59:38.622Z,4.99
2022-12-01T06:00:45.669Z,4.99
2022-12-01T06:01:48.980Z,4.98
2022-12-01T06:02:50.769Z,5.00
2022-12-01T06:03:53.848Z,5.00
2022-12-01T06:04:55.588Z,4.98
2022-12-01T06:05:58.319Z,4.97
2022-12-01T06:07:00.038Z,4.98
2022-12-01T06:08:02.828Z,4.96
2022-12-01T06:09:04.532Z,4.97
2022-12-01T06:10:10.237Z,4.98
2022-12-01T06:11:13.069Z,4.99
2022-12-01T06:12:14.811Z,4.99
2022-12-01T06:13:17.524Z,5.01
2022-12-01T06:14:19.226Z,5.03
2022-12-01T06:15:21.863Z,5.03
2022-12-01T06:16:23.648Z,5.04
2022-12-01T06:17:26.363Z,5.07
2022-12-01T06:18:30.568Z,5.07
2022-12-01T06:19:33.844Z,5.08
2022-12-01T06:20:35.639Z,5.09
2022-12-01T06:21:38.534Z,5.08
2022-12-01T06:22:40.376Z,5.09
2022-12-01T06:23:43.097Z,5.07
2022-12-01T06:24:44.786Z,5.08
2022-12-01T06:25:49.279Z,5.08
2022-12-01T06:26:50.995Z,5.08
2022-12-01T06:27:56.994Z,5.09
2022-12-01T06:28:58.844Z,5.09
2022-12-01T06:30:01.618Z,5.07
2022-12-01T06:31:03.884Z,5.08
2022-12-01T06:32:06.993Z,5.08
2022-12-01T06:33:08.812Z,5.10
2022-12-01T06:34:11.589Z,5.10
2022-12-01T06:35:13.379Z,5.10
2022-12-01T06:36:16.182Z,5.10
2022-12-01T06:37:17.880Z,5.12
2022-12-01T06:38:20.562Z,5.11
2022-12-01T06:39:22.383Z,5.08
2022-12-01T06:40:25.058Z,5.07
2022-12-01T06:41:28.062Z,5.06
2022-12-01T06:42:31.595Z,5.05
2022-12-01T06:43:35.802Z,5.01
2022-12-01T06:44:38.714Z,5.00
2022-12-01T06:45:40.536Z,4.96
2022-12-01T06:46:43.215Z,4.94
2022-12-01T06:47:45.099Z,4.95
2022-12-01T06:48:49.247Z,4.93
2022-12-01T06:49:51.401Z,4.90
2022-12-01T06:50:57.984Z,4.89
2022-12-01T06:52:01.066Z,4.86
2022-12-01T06:53:04.370Z,4.83
2022-12-01T06:54:06.174Z,4.80
2022-12-01T06:55:09.793Z,4.78
2022-12-01T06:56:12.137Z,4.76
2022-12-01T06:57:16.533Z,4.75
2022-12-01T06:58:18.644Z,4.73
2022-12-01T06:59:21.590Z,4.69
2022-12-01T07:00:23.886Z,4.66
2022-12-01T07:01:26.675Z,4.65
2022-12-01T07:02:28.477Z,4.64
2022-12-01T07:03:31.218Z,4.64
2022-12-01T07:04:32.941Z,4.62
2022-12-01T07:05:35.743Z,4.60
2022-12-01T07:06:37.521Z,4.59
2022-12-01T07:07:40.613Z,4.56
2022-12-01T07:08:42.488Z,4.56
2022-12-01T07:09:45.147Z,4.58
2022-12-01T07:10:46.815Z,4.54
2022-12-01T07:11:49.582Z,4.55
2022-12-01T07:12:53.667Z,4.53
2022-12-01T07:13:56.007Z,4.54
2022-12-01T07:14:59.216Z,4.49
2022-12-01T07:16:03.319Z,4.41
2022-12-01T07:17:06.329Z,4.41
2022-12-01T07:18:08.124Z,4.38
2022-12-01T07:19:10.842Z,4.37
2022-12-01T07:20:14.072Z,4.38
2022-12-01T07:21:16.336Z,4.37
2022-12-01T07:22:19.006Z,4.37
2022-12-01T07:23:22.423Z,4.37
2022-12-01T07:24:24.084Z,4.38
2022-12-01T07:25:26.736Z,4.36
2022-12-01T07:26:28.448Z,4.38
2022-12-01T07:27:31.763Z,4.40
2022-12-01T07:28:34.848Z,4.37
2022-12-01T07:29:37.475Z,4.38
2022-12-01T07:30:39.231Z,4.38
2022-12-01T07:31:41.916Z,4.37
2022-12-01T07:32:44.601Z,4.38
2022-12-01T07:33:46.353Z,4.36
2022-12-01T07:34:49.070Z,4.37
2022-12-01T07:35:53.278Z,4.37
2022-12-01T07:36:55.938Z,4.35
2022-12-01T07:37:57.738Z,4.33
2022-12-01T07:39:01.058Z,4.32
2022-12-01T07:40:03.348Z,4.33
2022-12-01T07:41:07.723Z,4.32
2022-12-01T07:42:09.724Z,4.34
2022-12-01T07:43:12.431Z,4.33
2022-12-01T07:44:16.996Z,4.32
2022-12-01T07:45:18.648Z,4.33
2022-12-01T07:46:24.069Z,4.34
2022-12-01T07:47:27.081Z,4.36
2022-12-01T07:48:29.847Z,4.36
2022-12-01T07:49:33.319Z,4.37
2022-12-01T07:50:34.987Z,4.38
2022-12-01T07:51:37.840Z,4.38
2022-12-01T07:52:39.479Z,4.37
2022-12-01T07:53:42.117Z,4.37
2022-12-01T07:54:43.821Z,4.37
2022-12-01T07:55:49.398Z,4.36
2022-12-01T07:56:52.258Z,4.37
2022-12-01T07:57:53.915Z,4.38
2022-12-01T07:58:56.594Z,4.38
2022-12-01T07:59:59.672Z,4.41
2022-12-01T08:01:07.162Z,4.43
2022-12-01T08:02:10.955Z,4.44
2022-12-01T08:03:13.449Z,4.44
2022-12-01T08:04:16.159Z,4.44
2022-12-01T08:05:17.877Z,4.44
2022-12-01T08:06:21.708Z,4.45
2022-12-01T08:07:28.458Z,4.48
2022-12-01T08:08:33.310Z,4.46
2022-12-01T08:09:35.037Z,4.46
2022-12-01T08:10:37.930Z,4.46
2022-12-01T08:11:40.762Z,4.47
2022-12-01T08:12:42.480Z,4.50
2022-12-01T08:13:45.678Z,4.48
2022-12-01T08:14:47.350Z,4.48
2022-12-01T08:15:51.451Z,4.46
2022-12-01T08:16:54.211Z,4.46
2022-12-01T08:17:55.863Z,4.47
2022-12-01T08:18:58.663Z,4.49
2022-12-01T08:20:00.335Z,4.51
2022-12-01T08:21:03.283Z,4.52
2022-12-01T08:22:06.008Z,4.52
2022-12-01T08:23:08.131Z,4.52
2022-12-01T08:24:11.663Z,4.54
2022-12-01T08:25:13.385Z,4.56
2022-12-01T08:26:18.308Z,4.58
2022-12-01T08:27:19.979Z,4.60
2022-12-01T08:28:22.691Z,4.61
2022-12-01T08:29:24.409Z,4.62
2022-12-01T08:30:27.501Z,4.62
2022-12-01T08:31:32.100Z,4.61
2022-12-01T08:32:34.850Z,4.60
2022-12-01T08:33:36.996Z,4.59
2022-12-01T08:34:41.353Z,4.59
2022-12-01T08:35:43.151Z,4.56
2022-12-01T08:36:45.882Z,4.55
2022-12-01T08:37:47.617Z,4.57
2022-12-01T08:38:53.208Z,4.56
2022-12-01T08:39:55.066Z,4.57
2022-12-01T08:41:01.355Z,4.57
2022-12-01T08:42:04.259Z,4.55
2022-12-01T08:43:06.012Z,4.54
2022-12-01T08:44:10.335Z,4.52
2022-12-01T08:45:13.070Z,4.54
2022-12-01T08:46:16.147Z,4.53
2022-12-01T08:47:20.215Z,4.51
2022-12-01T08:48:21.973Z,4.53
2022-12-01T08:49:25.022Z,4.54
2022-12-01T08:50:27.486Z,4.56
2022-12-01T08:51:30.344Z,4.57
2022-12-01T08:52:32.472Z,4.56
2022-12-01T08:53:38.322Z,4.58
2022-12-01T08:54:44.088Z,4.59
2022-12-01T08:55:46.603Z,4.59
2022-12-01T08:56:49.570Z,4.59
2022-12-01T08:57:52.287Z,4.60
2022-12-01T08:58:55.440Z,4.62
2022-12-01T08:59:57.145Z,4.63
2022-12-01T09:01:04.061Z,4.66
2022-12-01T09:02:07.351Z,4.68
2022-12-01T09:03:13.243Z,4.70
2022-12-01T09:04:16.290Z,4.74
2022-12-01T09:05:18.978Z,4.73
2022-12-01T09:06:20.762Z,4.75
2022-12-01T09:07:26.599Z,4.73
2022-12-01T09:08:31.996Z,4.75
2022-12-01T09:09:36.602Z,4.77
2022-12-01T09:10:38.447Z,4.78
2022-12-01T09:11:43.553Z,4.79
2022-12-01T09:12:46.197Z,4.83
2022-12-01T09:13:54.393Z,4.83
2022-12-01T09:14:57.492Z,4.84
2022-12-01T09:16:00.725Z,4.83
2022-12-01T09:17:03.449Z,4.82
2022-12-01T09:18:07.064Z,4.83
2022-12-01T09:19:13.162Z,4.86
2022-12-01T09:20:16.188Z,4.90
2022-12-01T09:21:20.822Z,4.91
2022-12-01T09:22:23.511Z,4.94
2022-12-01T09:23:25.278Z,5.00
2022-12-01T09:24:28.315Z,5.04
2022-12-01T09:25:30.864Z,5.05
2022-12-01T09:26:33.576Z,5.09
2022-12-01T09:27:36.428Z,5.11
2022-12-01T09:28:38.467Z,5.15
2022-12-01T09:29:41.143Z,5.16
2022-12-01T09:30:43.004Z,5.18
2022-12-01T09:31:45.935Z,5.18
2022-12-01T09:32:48.578Z,5.18
2022-12-01T09:33:56.205Z,5.20
2022-12-01T09:35:00.266Z,5.21
2022-12-01T09:36:03.191Z,5.22
2022-12-01T09:37:06.891Z,5.25
2022-12-01T09:38:08.631Z,5.29
2022-12-01T09:39:14.030Z,5.31
2022-12-01T09:40:15.882Z,5.34
2022-12-01T09:41:20.715Z,5.36
2022-12-01T09:42:32.179Z,5.40
2022-12-01T09:43:41.289Z,5.43
2022-12-01T09:44:47.764Z,5.48
2022-12-01T09:45:52.629Z,5.53
2022-12-01T09:46:57.978Z,5.59
2022-12-01T09:48:01.266Z,5.64
2022-12-01T09:49:05.270Z,5.68
2022-12-01T09:50:13.451Z,5.74
2022-12-01T09:51:16.787Z,5.79
2022-12-01T09:52:20.476Z,5.84
2022-12-01T09:53:24.808Z,5.89
2022-12-01T09:54:29.756Z,5.94
2022-12-01T09:55:32.847Z,6.00
2022-12-01T09:56:40.549Z,6.04
2022-12-01T09:57:43.984Z,6.10
2022-12-01T09:58:46.228Z,6.16
2022-12-01T09:59:49.332Z,6.22
2022-12-01T10:00:52.924Z,6.27
2022-12-01T10:01:59.315Z,6.31
2022-12-01T10:03:17.845Z,6.37
2022-12-01T10:04:23.145Z,6.40
2022-12-01T10:05:32.064Z,6.44
2022-12-01T10:06:40.024Z,6.48
2022-12-01T10:07:46.610Z,6.48
2022-12-01T10:08:53.616Z,6.50
2022-12-01T10:09:58.210Z,6.51
2022-12-01T10:11:07.947Z,6.53
2022-12-01T10:12:15.029Z,6.54
2022-12-01T10:13:19.946Z,6.57
2022-12-01T10:14:22.090Z,6.60
2022-12-01T10:15:33.590Z,6.62
2022-12-01T10:16:39.640Z,6.64
2022-12-01T10:17:48.376Z,6.67
2022-12-01T10:18:59.894Z,6.69
2022-12-01T10:20:05.034Z,6.73
2022-12-01T10:21:12.428Z,6.77
2022-12-01T10:22:45.720Z,6.80
2022-12-01T10:24:16.402Z,6.82
2022-12-01T10:25:21.916Z,6.82
2022-12-01T10:26:30.368Z,6.84
2022-12-01T10:27:44.974Z,6.86
2022-12-01T10:29:02.343Z,6.89
2022-12-01T10:30:07.562Z,6.90
2022-12-01T10:31:19.395Z,6.91
2022-12-01T10:32:25.510Z,6.92
2022-12-01T10:33:30.791Z,6.93
2022-12-01T10:34:35.058Z,6.92
2022-12-01T10:35:39.459Z,6.89
2022-12-01T10:36:43.656Z,6.92
2022-12-01T10:37:47.595Z,6.90
2022-12-01T10:38:49.432Z,6.90
2022-12-01T10:39:53.620Z,6.89
2022-12-01T10:40:58.474Z,6.86
2022-12-01T10:42:06.607Z,6.90
2022-12-01T10:43:11.020Z,6.90
2022-12-01T10:44:12.805Z,6.89
2022-12-01T10:45:19.538Z,6.90
2022-12-01T10:46:24.750Z,6.89
2022-12-01T10:47:28.838Z,6.90
2022-12-01T10:48:30.559Z,6.87
2022-12-01T10:49:38.134Z,6.87
2022-12-01T10:50:39.809Z,6.87
2022-12-01T10:51:55.321Z,6.87
2022-12-01T10:52:57.208Z,6.86
2022-12-01T10:54:01.226Z,6.83
2022-12-01T10:55:07.490Z,6.79
2022-12-01T10:56:13.982Z,6.77
2022-12-01T10:57:17.859Z,6.75
2022-12-01T10:58:20.775Z,6.74
2022-12-01T10:59:29.624Z,6.73
2022-12-01T11:00:58.525Z,6.71
2022-12-01T11:01:59.599Z,6.68
2022-12-01T11:03:02.944Z,6.67
2022-12-01T11:04:07.614Z,6.65
2022-12-01T11:05:22.183Z,6.64
2022-12-01T11:06:27.843Z,6.61
2022-12-01T11:07:33.952Z,6.59
2022-12-01T11:08:41.671Z,6.58
2022-12-01T11:09:45.681Z,6.57
2022-12-01T11:10:49.682Z,6.57
2022-12-01T11:11:57.244Z,6.56
2022-12-01T11:13:04.307Z,6.56
2022-12-01T11:14:15.848Z,6.56
2022-12-01T11:15:21.774Z,6.55
2022-12-01T11:16:49.017Z,6.52
2022-12-01T11:17:58.592Z,6.50
2022-12-01T11:19:08.972Z,6.47
2022-12-01T11:20:33.306Z,6.43
2022-12-01T11:21:35.691Z,6.41
2022-12-01T11:22:40.323Z,6.39
2022-12-01T11:23:46.883Z,6.36
2022-12-01T11:25:13.827Z,6.38
2022-12-01T11:26:17.822Z,6.38
2022-12-01T11:27:22.664Z,6.38
2022-12-01T11:28:25.604Z,6.41
2022-12-01T11:29:32.897Z,6.43
2022-12-01T11:30:35.557Z,6.45
2022-12-01T11:31:38.843Z,6.46
2022-12-01T11:32:41.647Z,6.48
2022-12-01T11:33:47.071Z,6.50
2022-12-01T11:34:52.659Z,6.52
2022-12-01T11:35:55.783Z,6.55
2022-12-01T11:36:59.426Z,6.58
2022-12-01T11:38:28.961Z,6.62
2022-12-01T11:39:31.871Z,6.66
2022-12-01T11:40:38.400Z,6.67
2022-12-01T11:41:42.681Z,6.69
2022-12-01T11:42:48.588Z,6.70
2022-12-01T11:44:01.195Z,6.71
2022-12-01T11:45:09.145Z,6.71
2022-12-01T11:46:11.894Z,6.73
2022-12-01T11:47:23.140Z,6.74
2022-12-01T11:48:27.732Z,6.77
2022-12-01T11:49:30.043Z,6.80
2022-12-01T11:50:35.135Z,6.83
2022-12-01T11:51:38.225Z,6.83
2022-12-01T11:52:47.618Z,6.82
2022-12-01T11:54:06.818Z,6.74
2022-12-01T11:55:21.539Z,6.69
2022-12-01T11:56:29.112Z,6.65
2022-12-01T11:57:34.589Z,6.63
2022-12-01T11:58:37.888Z,6.61
2022-12-01T11:59:39.634Z,6.58
2022-12-01T12:00:47.088Z,6.56
2022-12-01T12:02:05.590Z,6.49
2022-12-01T12:03:18.313Z,6.39
2022-12-01T12:04:39.023Z,6.32
2022-12-01T12:06:39.060Z,6.25
2022-12-01T12:07:37.117Z,6.21
2022-12-01T12:08:56.382Z,6.21
2022-12-01T12:10:14.010Z,6.22
2022-12-01T12:11:19.513Z,6.24
2022-12-01T12:12:34.984Z,6.27
2022-12-01T12:13:52.719Z,6.30
2022-12-01T12:15:02.136Z,6.32
2022-12-01T12:16:12.000Z,6.35
2022-12-01T12:17:26.855Z,6.41
2022-12-01T12:18:45.960Z,6.47
2022-12-01T12:20:09.675Z,6.49
2022-12-01T12:21:23.186Z,6.46
2022-12-01T12:22:33.523Z,6.48
2022-12-01T12:23:47.147Z,6.42
2022-12-01T12:25:04.172Z,6.33
2022-12-01T12:26:11.674Z,6.28
2022-12-01T12:27:19.955Z,6.30
2022-12-01T12:28:32.660Z,6.30
2022-12-01T12:29:49.748Z,6.30
2022-12-01T12:30:58.279Z,6.31
2022-12-01T12:32:08.411Z,6.33
2022-12-01T12:33:35.841Z,6.31
2022-12-01T12:34:50.137Z,6.27
2022-12-01T12:36:01.486Z,6.30
2022-12-01T12:37:12.813Z,6.32
2022-12-01T12:38:28.691Z,6.32
2022-12-01T12:39:42.772Z,6.34
2022-12-01T12:40:51.230Z,6.37
2022-12-01T12:41:55.585Z,6.40
2022-12-01T12:43:08.458Z,6.40
2022-12-01T12:44:23.688Z,6.41
2022-12-01T12:45:34.635Z,6.33
2022-12-01T12:46:43.720Z,6.37
2022-12-01T12:47:59.227Z,6.32
2022-12-01T12:49:19.743Z,6.34
2022-12-01T12:50:28.518Z,6.38
2022-12-01T12:51:34.112Z,6.45
2022-12-01T12:52:40.669Z,6.50
2022-12-01T12:53:46.817Z,6.50
2022-12-01T12:54:56.017Z,6.57
2022-12-01T12:56:02.093Z,6.66
2022-12-01T12:57:09.546Z,6.73
2022-12-01T12:58:17.873Z,6.87
2022-12-01T12:59:22.960Z,7.01
2022-12-01T13:00:27.351Z,7.13
2022-12-01T13:01:33.756Z,7.24
2022-12-01T13:02:42.642Z,7.31
2022-12-01T13:03:52.410Z,7.37
2022-12-01T13:04:58.698Z,7.42
2022-12-01T13:06:03.718Z,7.48
2022-12-01T13:07:21.952Z,7.54
2022-12-01T13:08:26.920Z,7.61
2022-12-01T13:09:32.149Z,7.67
2022-12-01T13:10:38.988Z,7.73
2022-12-01T13:11:47.353Z,7.79
2022-12-01T13:12:56.371Z,7.83
2022-12-01T13:14:02.672Z,7.90
2022-12-01T13:15:13.669Z,7.97
2022-12-01T13:16:22.328Z,7.95
2022-12-01T13:17:31.764Z,7.97
2022-12-01T13:18:39.101Z,7.94
2022-12-01T13:19:43.389Z,7.94
2022-12-01T13:20:46.479Z,7.91
2022-12-01T13:21:50.448Z,7.91
2022-12-01T13:22:52.874Z,7.88
2022-12-01T13:23:55.699Z,7.86
2022-12-01T13:24:58.490Z,7.79
2022-12-01T13:26:03.099Z,7.69
2022-12-01T13:27:13.075Z,7.60
2022-12-01T13:28:20.403Z,7.52
2022-12-01T13:29:25.301Z,7.43
2022-12-01T13:30:28.473Z,7.34
2022-12-01T13:31:31.353Z,7.27
2022-12-01T13:32:35.808Z,7.25
2022-12-01T13:33:40.272Z,7.20
2022-12-01T13:34:43.083Z,7.21
2022-12-01T13:35:45.880Z,7.24
2022-12-01T13:36:52.479Z,7.20
2022-12-01T13:37:54.810Z,7.19
2022-12-01T13:39:00.197Z,7.16
2022-12-01T13:40:10.793Z,7.09
2022-12-01T13:41:22.525Z,7.04
2022-12-01T13:42:28.232Z,7.00
2022-12-01T13:43:30.086Z,6.98
2022-12-01T13:44:39.367Z,6.93
2022-12-01T13:45:42.351Z,6.93
2022-12-01T13:46:53.860Z,6.90
2022-12-01T13:47:57.107Z,6.90
2022-12-01T13:49:00.209Z,6.90
2022-12-01T13:50:36.187Z,6.89
2022-12-01T13:52:21.221Z,6.89
2022-12-01T13:53:32.140Z,6.85
2022-12-01T13:54:36.858Z,6.80
2022-12-01T13:55:59.587Z,6.79
2022-12-01T13:57:03.722Z,6.74
2022-12-01T13:58:42.842Z,6.70
2022-12-01T14:00:20.360Z,6.67
2022-12-01T14:01:45.841Z,6.63
2022-12-01T14:03:27.299Z,6.62
2022-12-01T14:04:32.001Z,6.62
2022-12-01T14:05:44.493Z,6.60
2022-12-01T14:06:49.401Z,6.59
2022-12-01T14:07:52.613Z,6.60
2022-12-01T14:08:57.824Z,6.62
2022-12-01T14:10:33.022Z,6.61
2022-12-01T14:11:36.186Z,6.60
2022-12-01T14:12:38.084Z,6.59
2022-12-01T14:13:50.581Z,6.58
2022-12-01T14:14:55.989Z,6.58
2022-12-01T14:16:00.485Z,6.55
2022-12-01T14:17:03.234Z,6.53
2022-12-01T14:18:08.397Z,6.53
2022-12-01T14:19:28.076Z,6.49
2022-12-01T14:20:31.631Z,6.43
2022-12-01T14:21:46.792Z,6.38
2022-12-01T14:23:02.320Z,6.35
2022-12-01T14:24:07.074Z,6.30
2022-12-01T14:25:25.666Z,6.17
2022-12-01T14:26:29.491Z,6.12
2022-12-01T14:27:38.430Z,6.06
2022-12-01T14:29:24.345Z,5.98
2022-12-01T14:31:04.673Z,5.91
2022-12-01T14:32:22.339Z,5.83
2022-12-01T14:33:59.996Z,5.76
2022-12-01T14:35:06.744Z,5.75
2022-12-01T14:36:12.729Z,5.73